sensor_id;sensor_type;location;lat;lon;timestamp;temperature;humidity
20735;DHT22;10528;52.124;5.196;2023-05-10T00:00:25;14.20;99.90
20735;DHT22;10528;52.124;5.196;2023-05-10T00:02:52;14.20;99.90
20735;DHT22;10528;52.124;5.196;2023-05-10T00:05:19;14.10;99.90
20735;DHT22;10528;52.124;5.196;2023-05-10T00:07:46;14.10;99.90
20735;DHT22;10528;52.124;5.196;2023-05-10T00:10:13;14.10;99.90
20735;DHT22;10528;52.124;5.196;2023-05-10T00:12:41;14.10;99.90
20735;DHT22;10528;52.124;5.196;2023-05-10T00:15:09;14.10;99.90
20735;DHT22;10528;52.124;5.196;2023-05-10T00:17:36;14.10;99.90
20735;DHT22;10528;52.124;5.196;2023-05-10T00:20:03;14.10;99.90
20735;DHT22;10528;52.124;5.196;2023-05-10T00:22:31;14.00;99.90
20735;DHT22;10528;52.124;5.196;2023-05-10T00:24:59;14.00;99.90
20735;DHT22;10528;52.124;5.196;2023-05-10T00:27:26;14.00;99.90
20735;DHT22;10528;52.124;5.196;2023-05-10T00:29:52;14.00;99.90
20735;DHT22;10528;52.124;5.196;2023-05-10T00:32:19;14.00;99.90
20735;DHT22;10528;52.124;5.196;2023-05-10T00:34:47;14.00;99.90
20735;DHT22;10528;52.124;5.196;2023-05-10T00:37:14;14.00;99.90
20735;DHT22;10528;52.124;5.196;2023-05-10T00:39:41;13.90;99.90
20735;DHT22;10528;52.124;5.196;2023-05-10T00:42:08;13.90;99.90
20735;DHT22;10528;52.124;5.196;2023-05-10T00:44:35;14.00;99.90
20735;DHT22;10528;52.124;5.196;2023-05-10T00:47:02;13.90;99.90
20735;DHT22;10528;52.124;5.196;2023-05-10T00:49:29;13.90;99.90
20735;DHT22;10528;52.124;5.196;2023-05-10T00:51:56;13.90;99.90
20735;DHT22;10528;52.124;5.196;2023-05-10T00:54:23;13.90;99.90
20735;DHT22;10528;52.124;5.196;2023-05-10T00:56:51;13.80;99.90
20735;DHT22;10528;52.124;5.196;2023-05-10T00:59:18;13.90;99.90
20735;DHT22;10528;52.124;5.196;2023-05-10T01:01:46;13.90;99.90
20735;DHT22;10528;52.124;5.196;2023-05-10T01:04:14;13.90;99.90
20735;DHT22;10528;52.124;5.196;2023-05-10T01:06:42;14.00;99.90
20735;DHT22;10528;52.124;5.196;2023-05-10T01:09:10;13.90;99.90
20735;DHT22;10528;52.124;5.196;2023-05-10T01:11:39;13.90;99.90
20735;DHT22;10528;52.124;5.196;2023-05-10T01:14:06;13.90;99.90
20735;DHT22;10528;52.124;5.196;2023-05-10T01:16:39;14.00;99.90
20735;DHT22;10528;52.124;5.196;2023-05-10T01:19:16;14.00;99.90
20735;DHT22;10528;52.124;5.196;2023-05-10T01:23:03;14.00;99.90
20735;DHT22;10528;52.124;5.196;2023-05-10T01:34:11;14.20;99.90
20735;DHT22;10528;52.124;5.196;2023-05-10T01:37:04;14.20;99.90
20735;DHT22;10528;52.124;5.196;2023-05-10T01:39:45;14.10;99.90
20735;DHT22;10528;52.124;5.196;2023-05-10T01:42:26;14.10;99.90
20735;DHT22;10528;52.124;5.196;2023-05-10T01:48:23;14.10;99.90
20735;DHT22;10528;52.124;5.196;2023-05-10T01:50:54;14.10;99.90
20735;DHT22;10528;52.124;5.196;2023-05-10T01:53:23;14.10;99.90
20735;DHT22;10528;52.124;5.196;2023-05-10T01:55:52;14.00;99.90
20735;DHT22;10528;52.124;5.196;2023-05-10T01:58:27;14.00;99.90
20735;DHT22;10528;52.124;5.196;2023-05-10T02:00:58;14.00;99.90
20735;DHT22;10528;52.124;5.196;2023-05-10T02:03:28;14.00;99.90
20735;DHT22;10528;52.124;5.196;2023-05-10T02:05:57;13.90;99.90
20735;DHT22;10528;52.124;5.196;2023-05-10T02:08:26;13.90;99.90
20735;DHT22;10528;52.124;5.196;2023-05-10T02:10:55;13.90;99.90
20735;DHT22;10528;52.124;5.196;2023-05-10T02:13:24;14.00;99.90
20735;DHT22;10528;52.124;5.196;2023-05-10T02:15:54;13.90;99.90
20735;DHT22;10528;52.124;5.196;2023-05-10T02:18:22;13.90;99.90
20735;DHT22;10528;52.124;5.196;2023-05-10T02:20:51;13.90;99.90
20735;DHT22;10528;52.124;5.196;2023-05-10T02:23:20;13.90;99.90
20735;DHT22;10528;52.124;5.196;2023-05-10T02:25:48;13.90;99.90
20735;DHT22;10528;52.124;5.196;2023-05-10T02:28:21;13.90;99.90
20735;DHT22;10528;52.124;5.196;2023-05-10T02:30:51;13.80;99.90
20735;DHT22;10528;52.124;5.196;2023-05-10T02:33:19;13.90;99.90
20735;DHT22;10528;52.124;5.196;2023-05-10T02:35:49;13.80;99.90
20735;DHT22;10528;52.124;5.196;2023-05-10T02:38:19;13.70;99.90
20735;DHT22;10528;52.124;5.196;2023-05-10T02:40:48;13.70;99.90
20735;DHT22;10528;52.124;5.196;2023-05-10T02:43:17;13.60;99.90
20735;DHT22;10528;52.124;5.196;2023-05-10T02:45:47;13.70;99.90
20735;DHT22;10528;52.124;5.196;2023-05-10T02:48:15;13.70;99.90
20735;DHT22;10528;52.124;5.196;2023-05-10T02:50:46;13.70;99.90
20735;DHT22;10528;52.124;5.196;2023-05-10T02:53:38;13.70;99.90
20735;DHT22;10528;52.124;5.196;2023-05-10T02:56:14;13.70;99.90
20735;DHT22;10528;52.124;5.196;2023-05-10T02:58:43;13.80;99.90
20735;DHT22;10528;52.124;5.196;2023-05-10T03:01:10;13.80;99.90
20735;DHT22;10528;52.124;5.196;2023-05-10T03:03:37;13.80;99.90
20735;DHT22;10528;52.124;5.196;2023-05-10T03:06:04;13.80;99.90
20735;DHT22;10528;52.124;5.196;2023-05-10T03:08:31;13.70;99.90
20735;DHT22;10528;52.124;5.196;2023-05-10T03:16:32;13.70;99.90
20735;DHT22;10528;52.124;5.196;2023-05-10T03:19:08;13.80;99.90
20735;DHT22;10528;52.124;5.196;2023-05-10T03:21:50;13.80;99.90
20735;DHT22;10528;52.124;5.196;2023-05-10T03:24:24;13.70;99.90
20735;DHT22;10528;52.124;5.196;2023-05-10T03:26:59;13.70;99.90
20735;DHT22;10528;52.124;5.196;2023-05-10T03:29:29;13.60;99.90
20735;DHT22;10528;52.124;5.196;2023-05-10T03:31:58;13.70;99.90
20735;DHT22;10528;52.124;5.196;2023-05-10T03:34:30;13.70;99.90
20735;DHT22;10528;52.124;5.196;2023-05-10T03:36:58;13.70;99.90
20735;DHT22;10528;52.124;5.196;2023-05-10T03:39:27;13.80;99.90
20735;DHT22;10528;52.124;5.196;2023-05-10T03:41:57;13.70;99.90
20735;DHT22;10528;52.124;5.196;2023-05-10T03:44:24;13.80;99.90
20735;DHT22;10528;52.124;5.196;2023-05-10T03:46:51;13.80;99.90
20735;DHT22;10528;52.124;5.196;2023-05-10T03:49:18;13.80;99.90
20735;DHT22;10528;52.124;5.196;2023-05-10T03:51:45;13.80;99.90
20735;DHT22;10528;52.124;5.196;2023-05-10T03:54:12;13.80;99.90
20735;DHT22;10528;52.124;5.196;2023-05-10T03:56:38;13.70;99.90
20735;DHT22;10528;52.124;5.196;2023-05-10T03:59:05;13.70;99.90
20735;DHT22;10528;52.124;5.196;2023-05-10T04:01:34;13.70;99.90
20735;DHT22;10528;52.124;5.196;2023-05-10T04:04:02;13.70;99.90
20735;DHT22;10528;52.124;5.196;2023-05-10T04:06:30;13.70;99.90
20735;DHT22;10528;52.124;5.196;2023-05-10T04:08:58;13.70;99.90
20735;DHT22;10528;52.124;5.196;2023-05-10T04:11:30;13.80;99.90
20735;DHT22;10528;52.124;5.196;2023-05-10T04:13:57;14.00;99.90
20735;DHT22;10528;52.124;5.196;2023-05-10T04:16:24;13.90;99.90
20735;DHT22;10528;52.124;5.196;2023-05-10T04:18:51;13.90;99.90
20735;DHT22;10528;52.124;5.196;2023-05-10T04:21:17;14.00;99.90
20735;DHT22;10528;52.124;5.196;2023-05-10T04:23:44;13.90;99.90
20735;DHT22;10528;52.124;5.196;2023-05-10T04:26:12;14.00;99.90
20735;DHT22;10528;52.124;5.196;2023-05-10T04:28:39;13.90;99.90
20735;DHT22;10528;52.124;5.196;2023-05-10T04:31:08;13.90;99.90
20735;DHT22;10528;52.124;5.196;2023-05-10T04:33:36;14.00;99.90
20735;DHT22;10528;52.124;5.196;2023-05-10T04:36:03;13.90;99.90
20735;DHT22;10528;52.124;5.196;2023-05-10T04:38:31;14.00;99.90
20735;DHT22;10528;52.124;5.196;2023-05-10T04:41:08;13.90;99.90
20735;DHT22;10528;52.124;5.196;2023-05-10T04:43:37;13.90;99.90
20735;DHT22;10528;52.124;5.196;2023-05-10T04:46:05;13.80;99.90
20735;DHT22;10528;52.124;5.196;2023-05-10T04:48:32;13.80;99.90
20735;DHT22;10528;52.124;5.196;2023-05-10T04:50:59;14.00;99.90
20735;DHT22;10528;52.124;5.196;2023-05-10T04:53:26;13.90;99.90
20735;DHT22;10528;52.124;5.196;2023-05-10T04:55:53;13.80;99.90
20735;DHT22;10528;52.124;5.196;2023-05-10T04:58:20;13.80;99.90
20735;DHT22;10528;52.124;5.196;2023-05-10T05:00:47;13.80;99.90
20735;DHT22;10528;52.124;5.196;2023-05-10T05:03:14;14.00;99.90
20735;DHT22;10528;52.124;5.196;2023-05-10T05:05:41;14.00;99.90
20735;DHT22;10528;52.124;5.196;2023-05-10T05:08:09;13.90;99.90
20735;DHT22;10528;52.124;5.196;2023-05-10T05:10:36;13.90;99.90
20735;DHT22;10528;52.124;5.196;2023-05-10T05:13:03;13.80;99.90
20735;DHT22;10528;52.124;5.196;2023-05-10T05:15:30;13.70;99.90
20735;DHT22;10528;52.124;5.196;2023-05-10T05:17:57;13.70;99.90
20735;DHT22;10528;52.124;5.196;2023-05-10T05:20:24;13.70;99.90
20735;DHT22;10528;52.124;5.196;2023-05-10T05:22:51;13.80;99.90
20735;DHT22;10528;52.124;5.196;2023-05-10T05:25:17;13.70;99.90
20735;DHT22;10528;52.124;5.196;2023-05-10T05:27:44;13.70;99.90
20735;DHT22;10528;52.124;5.196;2023-05-10T05:30:11;13.70;99.90
20735;DHT22;10528;52.124;5.196;2023-05-10T05:32:39;13.70;99.90
20735;DHT22;10528;52.124;5.196;2023-05-10T05:35:06;13.70;99.90
20735;DHT22;10528;52.124;5.196;2023-05-10T05:37:34;13.70;99.90
20735;DHT22;10528;52.124;5.196;2023-05-10T05:40:01;13.70;99.90
20735;DHT22;10528;52.124;5.196;2023-05-10T05:42:29;13.70;99.90
20735;DHT22;10528;52.124;5.196;2023-05-10T05:44:57;13.60;99.90
20735;DHT22;10528;52.124;5.196;2023-05-10T05:47:24;13.60;99.90
20735;DHT22;10528;52.124;5.196;2023-05-10T05:49:51;13.50;99.90
20735;DHT22;10528;52.124;5.196;2023-05-10T05:52:18;13.50;99.90
20735;DHT22;10528;52.124;5.196;2023-05-10T05:54:45;13.50;99.90
20735;DHT22;10528;52.124;5.196;2023-05-10T05:57:12;13.60;99.90
20735;DHT22;10528;52.124;5.196;2023-05-10T05:59:38;13.60;99.90
20735;DHT22;10528;52.124;5.196;2023-05-10T06:02:08;13.50;99.90
20735;DHT22;10528;52.124;5.196;2023-05-10T06:04:36;13.80;99.90
20735;DHT22;10528;52.124;5.196;2023-05-10T06:07:03;13.80;99.90
20735;DHT22;10528;52.124;5.196;2023-05-10T06:09:29;13.80;99.90
20735;DHT22;10528;52.124;5.196;2023-05-10T06:11:56;13.80;99.90
20735;DHT22;10528;52.124;5.196;2023-05-10T06:14:23;13.80;99.90
20735;DHT22;10528;52.124;5.196;2023-05-10T06:16:50;13.90;99.90
20735;DHT22;10528;52.124;5.196;2023-05-10T06:19:17;13.90;99.90
20735;DHT22;10528;52.124;5.196;2023-05-10T06:21:44;13.90;99.90
20735;DHT22;10528;52.124;5.196;2023-05-10T06:24:11;14.00;99.90
20735;DHT22;10528;52.124;5.196;2023-05-10T06:26:37;13.90;99.90
20735;DHT22;10528;52.124;5.196;2023-05-10T06:29:04;13.90;99.90
20735;DHT22;10528;52.124;5.196;2023-05-10T06:31:31;14.10;99.90
20735;DHT22;10528;52.124;5.196;2023-05-10T06:33:58;13.80;99.90
20735;DHT22;10528;52.124;5.196;2023-05-10T06:36:25;13.80;99.90
20735;DHT22;10528;52.124;5.196;2023-05-10T06:38:53;13.70;99.90
20735;DHT22;10528;52.124;5.196;2023-05-10T06:41:20;13.80;99.90
20735;DHT22;10528;52.124;5.196;2023-05-10T06:43:50;13.80;99.90
20735;DHT22;10528;52.124;5.196;2023-05-10T06:46:17;14.40;99.90
20735;DHT22;10528;52.124;5.196;2023-05-10T06:48:44;14.50;99.90
20735;DHT22;10528;52.124;5.196;2023-05-10T06:51:11;14.10;99.90
20735;DHT22;10528;52.124;5.196;2023-05-10T06:53:38;13.90;99.90
20735;DHT22;10528;52.124;5.196;2023-05-10T06:56:05;13.90;99.90
20735;DHT22;10528;52.124;5.196;2023-05-10T06:58:32;13.80;99.90
20735;DHT22;10528;52.124;5.196;2023-05-10T07:01:03;13.90;99.90
20735;DHT22;10528;52.124;5.196;2023-05-10T07:03:32;13.90;99.90
20735;DHT22;10528;52.124;5.196;2023-05-10T07:06:03;13.90;99.90
20735;DHT22;10528;52.124;5.196;2023-05-10T07:08:31;14.00;99.90
20735;DHT22;10528;52.124;5.196;2023-05-10T07:11:05;13.90;99.90
20735;DHT22;10528;52.124;5.196;2023-05-10T07:13:34;14.00;99.90
20735;DHT22;10528;52.124;5.196;2023-05-10T07:16:01;14.00;99.90
20735;DHT22;10528;52.124;5.196;2023-05-10T07:18:28;14.10;99.90
20735;DHT22;10528;52.124;5.196;2023-05-10T07:20:56;14.10;99.90
20735;DHT22;10528;52.124;5.196;2023-05-10T07:23:23;14.10;99.90
20735;DHT22;10528;52.124;5.196;2023-05-10T07:25:51;14.10;99.90
20735;DHT22;10528;52.124;5.196;2023-05-10T07:28:19;14.10;99.90
20735;DHT22;10528;52.124;5.196;2023-05-10T07:30:46;14.10;99.90
20735;DHT22;10528;52.124;5.196;2023-05-10T07:33:14;14.10;99.90
20735;DHT22;10528;52.124;5.196;2023-05-10T07:35:43;14.00;99.90
20735;DHT22;10528;52.124;5.196;2023-05-10T07:38:10;14.10;99.90
20735;DHT22;10528;52.124;5.196;2023-05-10T07:40:38;14.20;99.90
20735;DHT22;10528;52.124;5.196;2023-05-10T07:43:05;14.20;99.90
20735;DHT22;10528;52.124;5.196;2023-05-10T07:45:33;14.10;99.90
20735;DHT22;10528;52.124;5.196;2023-05-10T07:48:00;14.10;99.90
20735;DHT22;10528;52.124;5.196;2023-05-10T07:50:27;14.20;99.90
20735;DHT22;10528;52.124;5.196;2023-05-10T07:52:54;14.20;99.90
20735;DHT22;10528;52.124;5.196;2023-05-10T07:55:21;14.30;99.90
20735;DHT22;10528;52.124;5.196;2023-05-10T07:57:48;14.20;99.90
20735;DHT22;10528;52.124;5.196;2023-05-10T08:00:19;14.40;99.90
20735;DHT22;10528;52.124;5.196;2023-05-10T08:02:47;14.50;99.90
20735;DHT22;10528;52.124;5.196;2023-05-10T08:05:14;14.50;99.90
20735;DHT22;10528;52.124;5.196;2023-05-10T08:07:42;14.40;99.90
20735;DHT22;10528;52.124;5.196;2023-05-10T08:10:09;14.50;99.90
20735;DHT22;10528;52.124;5.196;2023-05-10T08:12:38;14.50;99.90
20735;DHT22;10528;52.124;5.196;2023-05-10T08:15:05;14.60;99.90
20735;DHT22;10528;52.124;5.196;2023-05-10T08:17:33;14.60;99.90
20735;DHT22;10528;52.124;5.196;2023-05-10T08:20:00;14.60;99.90
20735;DHT22;10528;52.124;5.196;2023-05-10T08:22:27;14.60;99.90
20735;DHT22;10528;52.124;5.196;2023-05-10T08:24:54;14.70;99.90
20735;DHT22;10528;52.124;5.196;2023-05-10T08:27:21;14.70;99.90
20735;DHT22;10528;52.124;5.196;2023-05-10T08:29:48;14.70;99.90
20735;DHT22;10528;52.124;5.196;2023-05-10T08:32:17;14.50;99.90
20735;DHT22;10528;52.124;5.196;2023-05-10T08:34:44;14.50;99.90
20735;DHT22;10528;52.124;5.196;2023-05-10T08:37:11;14.40;99.90
20735;DHT22;10528;52.124;5.196;2023-05-10T08:39:40;14.40;99.90
20735;DHT22;10528;52.124;5.196;2023-05-10T08:42:07;14.40;99.90
20735;DHT22;10528;52.124;5.196;2023-05-10T08:44:36;14.50;99.90
20735;DHT22;10528;52.124;5.196;2023-05-10T08:47:06;14.50;99.90
20735;DHT22;10528;52.124;5.196;2023-05-10T08:49:34;14.50;99.90
20735;DHT22;10528;52.124;5.196;2023-05-10T08:52:04;14.60;99.90
20735;DHT22;10528;52.124;5.196;2023-05-10T08:54:34;14.70;99.90
20735;DHT22;10528;52.124;5.196;2023-05-10T08:57:01;14.80;99.90
20735;DHT22;10528;52.124;5.196;2023-05-10T08:59:28;14.80;99.90
20735;DHT22;10528;52.124;5.196;2023-05-10T09:01:59;14.90;99.90
20735;DHT22;10528;52.124;5.196;2023-05-10T09:04:27;14.90;99.90
20735;DHT22;10528;52.124;5.196;2023-05-10T09:06:56;15.00;99.90
20735;DHT22;10528;52.124;5.196;2023-05-10T09:09:24;14.90;99.90
20735;DHT22;10528;52.124;5.196;2023-05-10T09:11:52;14.90;99.90
20735;DHT22;10528;52.124;5.196;2023-05-10T09:14:20;14.90;99.90
20735;DHT22;10528;52.124;5.196;2023-05-10T09:16:49;14.90;99.90
20735;DHT22;10528;52.124;5.196;2023-05-10T09:19:16;14.80;99.90
20735;DHT22;10528;52.124;5.196;2023-05-10T09:21:43;14.80;99.90
20735;DHT22;10528;52.124;5.196;2023-05-10T09:24:10;14.90;99.90
20735;DHT22;10528;52.124;5.196;2023-05-10T09:26:48;14.90;99.90
20735;DHT22;10528;52.124;5.196;2023-05-10T09:29:15;14.80;99.90
20735;DHT22;10528;52.124;5.196;2023-05-10T09:31:50;14.90;99.90
20735;DHT22;10528;52.124;5.196;2023-05-10T09:34:28;15.10;99.90
20735;DHT22;10528;52.124;5.196;2023-05-10T09:37:00;15.30;99.90
20735;DHT22;10528;52.124;5.196;2023-05-10T09:39:32;15.40;99.90
20735;DHT22;10528;52.124;5.196;2023-05-10T09:42:06;15.40;99.90
20735;DHT22;10528;52.124;5.196;2023-05-10T09:44:37;15.40;99.90
20735;DHT22;10528;52.124;5.196;2023-05-10T09:47:04;15.60;99.90
20735;DHT22;10528;52.124;5.196;2023-05-10T09:49:31;15.40;99.90
20735;DHT22;10528;52.124;5.196;2023-05-10T09:52:04;15.60;99.90
20735;DHT22;10528;52.124;5.196;2023-05-10T09:54:32;15.60;99.90
20735;DHT22;10528;52.124;5.196;2023-05-10T09:57:00;15.70;99.90
20735;DHT22;10528;52.124;5.196;2023-05-10T09:59:28;15.50;99.90
20735;DHT22;10528;52.124;5.196;2023-05-10T10:01:59;15.60;99.90
20735;DHT22;10528;52.124;5.196;2023-05-10T10:04:27;15.50;99.90
20735;DHT22;10528;52.124;5.196;2023-05-10T10:07:02;15.40;99.90
20735;DHT22;10528;52.124;5.196;2023-05-10T10:09:31;15.40;99.90
20735;DHT22;10528;52.124;5.196;2023-05-10T10:12:02;15.40;99.90
20735;DHT22;10528;52.124;5.196;2023-05-10T10:14:30;15.50;99.90
20735;DHT22;10528;52.124;5.196;2023-05-10T10:17:00;15.60;99.90
20735;DHT22;10528;52.124;5.196;2023-05-10T10:19:35;15.70;99.90
20735;DHT22;10528;52.124;5.196;2023-05-10T10:22:03;15.70;99.90
20735;DHT22;10528;52.124;5.196;2023-05-10T10:24:30;15.80;99.90
20735;DHT22;10528;52.124;5.196;2023-05-10T10:27:03;15.70;99.90
20735;DHT22;10528;52.124;5.196;2023-05-10T10:29:50;15.70;99.90
20735;DHT22;10528;52.124;5.196;2023-05-10T10:32:55;15.70;99.90
20735;DHT22;10528;52.124;5.196;2023-05-10T10:35:54;15.60;99.90
20735;DHT22;10528;52.124;5.196;2023-05-10T10:38:24;15.50;99.90
20735;DHT22;10528;52.124;5.196;2023-05-10T10:41:10;15.50;99.90
20735;DHT22;10528;52.124;5.196;2023-05-10T10:43:38;15.60;99.90
20735;DHT22;10528;52.124;5.196;2023-05-10T10:46:16;15.70;99.90
20735;DHT22;10528;52.124;5.196;2023-05-10T10:48:48;15.90;99.90
20735;DHT22;10528;52.124;5.196;2023-05-10T10:51:38;16.00;99.90
20735;DHT22;10528;52.124;5.196;2023-05-10T10:54:11;16.20;99.90
20735;DHT22;10528;52.124;5.196;2023-05-10T10:56:38;16.30;99.90
20735;DHT22;10528;52.124;5.196;2023-05-10T10:59:05;16.40;99.90
20735;DHT22;10528;52.124;5.196;2023-05-10T11:01:34;16.50;99.90
20735;DHT22;10528;52.124;5.196;2023-05-10T11:06:32;16.80;99.90
20735;DHT22;10528;52.124;5.196;2023-05-10T11:09:12;16.70;99.90
20735;DHT22;10528;52.124;5.196;2023-05-10T11:11:50;16.60;99.90
20735;DHT22;10528;52.124;5.196;2023-05-10T11:14:22;16.50;99.90
20735;DHT22;10528;52.124;5.196;2023-05-10T11:16:49;16.60;99.90
20735;DHT22;10528;52.124;5.196;2023-05-10T11:19:17;16.60;99.90
20735;DHT22;10528;52.124;5.196;2023-05-10T11:24:56;16.60;99.90
20735;DHT22;10528;52.124;5.196;2023-05-10T11:27:25;16.50;99.90
20735;DHT22;10528;52.124;5.196;2023-05-10T11:29:52;16.40;99.90
20735;DHT22;10528;52.124;5.196;2023-05-10T11:32:19;16.50;99.90
20735;DHT22;10528;52.124;5.196;2023-05-10T11:34:47;16.60;99.90
20735;DHT22;10528;52.124;5.196;2023-05-10T11:37:14;16.50;99.90
20735;DHT22;10528;52.124;5.196;2023-05-10T11:39:46;16.40;99.90
20735;DHT22;10528;52.124;5.196;2023-05-10T11:42:15;16.40;99.90
20735;DHT22;10528;52.124;5.196;2023-05-10T11:44:44;16.40;99.90
20735;DHT22;10528;52.124;5.196;2023-05-10T11:47:13;16.50;99.90
20735;DHT22;10528;52.124;5.196;2023-05-10T11:49:43;16.60;99.90
20735;DHT22;10528;52.124;5.196;2023-05-10T11:52:10;16.80;99.90
20735;DHT22;10528;52.124;5.196;2023-05-10T11:54:42;17.10;99.90
20735;DHT22;10528;52.124;5.196;2023-05-10T11:57:12;17.00;99.90
20735;DHT22;10528;52.124;5.196;2023-05-10T11:59:39;17.20;99.90
20735;DHT22;10528;52.124;5.196;2023-05-10T12:02:09;17.20;99.90
20735;DHT22;10528;52.124;5.196;2023-05-10T12:04:36;17.40;99.90
20735;DHT22;10528;52.124;5.196;2023-05-10T12:07:03;17.50;99.90
20735;DHT22;10528;52.124;5.196;2023-05-10T12:09:31;17.50;99.90
20735;DHT22;10528;52.124;5.196;2023-05-10T12:12:09;17.50;99.90
20735;DHT22;10528;52.124;5.196;2023-05-10T12:14:36;17.70;99.90
20735;DHT22;10528;52.124;5.196;2023-05-10T12:17:03;17.80;99.90
20735;DHT22;10528;52.124;5.196;2023-05-10T12:19:40;17.80;99.90
20735;DHT22;10528;52.124;5.196;2023-05-10T12:22:07;17.60;99.90
20735;DHT22;10528;52.124;5.196;2023-05-10T12:24:36;17.50;99.90
20735;DHT22;10528;52.124;5.196;2023-05-10T12:27:05;17.50;99.90
20735;DHT22;10528;52.124;5.196;2023-05-10T12:29:34;17.30;99.90
20735;DHT22;10528;52.124;5.196;2023-05-10T12:32:02;17.30;99.90
20735;DHT22;10528;52.124;5.196;2023-05-10T12:34:34;17.30;99.90
20735;DHT22;10528;52.124;5.196;2023-05-10T12:37:05;17.10;99.90
20735;DHT22;10528;52.124;5.196;2023-05-10T12:39:43;17.20;99.90
20735;DHT22;10528;52.124;5.196;2023-05-10T12:42:11;17.10;99.90
20735;DHT22;10528;52.124;5.196;2023-05-10T12:44:38;16.80;99.90
20735;DHT22;10528;52.124;5.196;2023-05-10T12:47:06;16.80;99.90
20735;DHT22;10528;52.124;5.196;2023-05-10T12:49:33;16.70;99.90
20735;DHT22;10528;52.124;5.196;2023-05-10T12:52:00;16.30;99.90
20735;DHT22;10528;52.124;5.196;2023-05-10T12:54:27;15.80;99.90
20735;DHT22;10528;52.124;5.196;2023-05-10T12:56:54;15.50;99.90
20735;DHT22;10528;52.124;5.196;2023-05-10T12:59:21;15.50;99.90
20735;DHT22;10528;52.124;5.196;2023-05-10T13:01:49;15.50;99.90
20735;DHT22;10528;52.124;5.196;2023-05-10T13:04:16;15.40;99.90
20735;DHT22;10528;52.124;5.196;2023-05-10T13:06:43;15.20;99.90
20735;DHT22;10528;52.124;5.196;2023-05-10T13:09:10;15.20;99.90
20735;DHT22;10528;52.124;5.196;2023-05-10T13:11:37;15.20;99.90
20735;DHT22;10528;52.124;5.196;2023-05-10T13:14:04;15.20;99.90
20735;DHT22;10528;52.124;5.196;2023-05-10T13:16:31;15.20;99.90
20735;DHT22;10528;52.124;5.196;2023-05-10T13:18:58;15.20;99.90
20735;DHT22;10528;52.124;5.196;2023-05-10T13:21:25;15.30;99.90
20735;DHT22;10528;52.124;5.196;2023-05-10T13:23:52;15.20;99.90
20735;DHT22;10528;52.124;5.196;2023-05-10T13:26:20;15.30;99.90
20735;DHT22;10528;52.124;5.196;2023-05-10T13:28:46;15.40;99.90
20735;DHT22;10528;52.124;5.196;2023-05-10T13:31:15;15.30;99.90
20735;DHT22;10528;52.124;5.196;2023-05-10T13:33:42;15.30;99.90
20735;DHT22;10528;52.124;5.196;2023-05-10T13:36:09;15.30;99.90
20735;DHT22;10528;52.124;5.196;2023-05-10T13:38:35;15.30;99.90
20735;DHT22;10528;52.124;5.196;2023-05-10T13:41:03;15.30;99.90
20735;DHT22;10528;52.124;5.196;2023-05-10T13:43:30;15.30;99.90
20735;DHT22;10528;52.124;5.196;2023-05-10T13:45:56;15.40;99.90
20735;DHT22;10528;52.124;5.196;2023-05-10T13:48:23;15.40;99.90
20735;DHT22;10528;52.124;5.196;2023-05-10T13:50:50;15.30;99.90
20735;DHT22;10528;52.124;5.196;2023-05-10T13:53:17;15.40;99.90
20735;DHT22;10528;52.124;5.196;2023-05-10T13:55:44;15.40;99.90
20735;DHT22;10528;52.124;5.196;2023-05-10T13:58:11;15.50;99.90
20735;DHT22;10528;52.124;5.196;2023-05-10T14:00:38;15.60;99.90
20735;DHT22;10528;52.124;5.196;2023-05-10T14:03:04;15.60;99.90
20735;DHT22;10528;52.124;5.196;2023-05-10T14:05:32;15.60;99.90
20735;DHT22;10528;52.124;5.196;2023-05-10T14:07:59;15.60;99.90
20735;DHT22;10528;52.124;5.196;2023-05-10T14:10:26;15.70;99.90
20735;DHT22;10528;52.124;5.196;2023-05-10T14:12:53;15.60;99.90
20735;DHT22;10528;52.124;5.196;2023-05-10T14:15:20;15.60;99.90
20735;DHT22;10528;52.124;5.196;2023-05-10T14:17:47;15.60;99.90
20735;DHT22;10528;52.124;5.196;2023-05-10T14:20:14;15.60;99.90
20735;DHT22;10528;52.124;5.196;2023-05-10T14:22:41;15.50;99.90
20735;DHT22;10528;52.124;5.196;2023-05-10T14:25:08;15.60;99.90
20735;DHT22;10528;52.124;5.196;2023-05-10T14:27:35;15.60;99.90
20735;DHT22;10528;52.124;5.196;2023-05-10T14:30:03;15.60;99.90
20735;DHT22;10528;52.124;5.196;2023-05-10T14:32:30;15.70;99.90
20735;DHT22;10528;52.124;5.196;2023-05-10T14:34:58;15.80;99.90
20735;DHT22;10528;52.124;5.196;2023-05-10T14:37:26;15.80;99.90
20735;DHT22;10528;52.124;5.196;2023-05-10T14:39:53;15.80;99.90
20735;DHT22;10528;52.124;5.196;2023-05-10T14:42:20;15.70;99.90
20735;DHT22;10528;52.124;5.196;2023-05-10T14:44:47;15.90;99.90
20735;DHT22;10528;52.124;5.196;2023-05-10T14:47:14;15.70;99.90
20735;DHT22;10528;52.124;5.196;2023-05-10T14:49:41;15.70;99.90
20735;DHT22;10528;52.124;5.196;2023-05-10T14:52:08;15.90;99.90
20735;DHT22;10528;52.124;5.196;2023-05-10T14:54:34;15.90;99.90
20735;DHT22;10528;52.124;5.196;2023-05-10T14:57:01;16.00;99.90
20735;DHT22;10528;52.124;5.196;2023-05-10T14:59:28;16.20;99.90
20735;DHT22;10528;52.124;5.196;2023-05-10T15:01:55;16.20;99.90
20735;DHT22;10528;52.124;5.196;2023-05-10T15:04:23;16.30;99.90
20735;DHT22;10528;52.124;5.196;2023-05-10T15:06:53;16.30;99.90
20735;DHT22;10528;52.124;5.196;2023-05-10T15:09:25;16.20;99.90
20735;DHT22;10528;52.124;5.196;2023-05-10T15:11:54;16.30;99.90
20735;DHT22;10528;52.124;5.196;2023-05-10T15:14:22;16.40;99.90
20735;DHT22;10528;52.124;5.196;2023-05-10T15:16:49;16.40;99.90
20735;DHT22;10528;52.124;5.196;2023-05-10T15:19:16;16.30;99.90
20735;DHT22;10528;52.124;5.196;2023-05-10T15:21:43;16.40;99.90
20735;DHT22;10528;52.124;5.196;2023-05-10T15:24:10;16.30;99.90
20735;DHT22;10528;52.124;5.196;2023-05-10T15:26:37;16.30;99.90
20735;DHT22;10528;52.124;5.196;2023-05-10T15:29:04;16.30;99.90
20735;DHT22;10528;52.124;5.196;2023-05-10T15:31:31;16.30;99.90
20735;DHT22;10528;52.124;5.196;2023-05-10T15:33:58;16.30;99.90
20735;DHT22;10528;52.124;5.196;2023-05-10T15:36:25;16.30;99.90
20735;DHT22;10528;52.124;5.196;2023-05-10T15:38:55;16.10;99.90
20735;DHT22;10528;52.124;5.196;2023-05-10T15:41:22;16.00;99.90
20735;DHT22;10528;52.124;5.196;2023-05-10T15:43:49;16.10;99.90
20735;DHT22;10528;52.124;5.196;2023-05-10T15:46:16;16.10;99.90
20735;DHT22;10528;52.124;5.196;2023-05-10T15:48:43;16.00;99.90
20735;DHT22;10528;52.124;5.196;2023-05-10T15:51:10;16.00;99.90
20735;DHT22;10528;52.124;5.196;2023-05-10T15:53:37;16.00;99.90
20735;DHT22;10528;52.124;5.196;2023-05-10T15:56:09;16.00;99.90
20735;DHT22;10528;52.124;5.196;2023-05-10T15:58:40;16.00;99.90
20735;DHT22;10528;52.124;5.196;2023-05-10T16:01:07;16.00;99.90
20735;DHT22;10528;52.124;5.196;2023-05-10T16:03:34;16.00;99.90